Time;durP1;ratioP1;P1;durP2;ratioP2;P2;SDS_P1;SDS_P2;PMS_P1;PMS_P2;Temp;Humidity;BMP_temperature;BMP_pressure;BME280_temperature;BME280_humidity;BME280_pressure;Samples;Min_cycle;Max_cycle;Signal;HPM_P1;HPM_P2
2022/09/21 00:02:02;;;;;;;5.88;2.30;;;12.40;99.90;;;;;;5030924;28;20045;-62
2022/09/21 00:04:27;;;;;;;5.18;2.00;;;12.20;99.90;;;;;;5031079;28;20048;-62
2022/09/21 00:06:53;;;;;;;12.55;2.70;;;12.20;99.90;;;;;;5031072;28;20074;-62
2022/09/21 00:09:18;;;;;;;9.90;3.00;;;12.30;99.90;;;;;;5031131;28;20041;-62
2022/09/21 00:11:44;;;;;;;8.65;2.30;;;12.70;99.90;;;;;;5030609;28;20065;-62
2022/09/21 00:14:13;;;;;;;8.05;2.50;;;12.70;99.90;;;;;;5030629;28;20108;-62
2022/09/21 00:16:42;;;;;;;7.15;2.70;;;12.70;99.90;;;;;;5030986;28;20394;-62
2022/09/21 00:19:09;;;;;;;5.45;2.35;;;12.40;99.90;;;;;;5031288;28;20463;-62
2022/09/21 00:21:36;;;;;;;9.20;2.72;;;12.70;99.90;;;;;;5030882;28;20064;-62
2022/09/21 00:24:03;;;;;;;12.82;2.60;;;11.90;99.90;;;;;;5030851;28;20045;-62
2022/09/21 00:26:29;;;;;;;4.32;2.22;;;12.20;99.90;;;;;;5030301;28;20494;-62
2022/09/21 00:28:58;;;;;;;5.47;1.88;;;12.40;99.90;;;;;;5030938;28;20049;-62
2022/09/21 00:31:25;;;;;;;6.43;1.90;;;12.40;99.90;;;;;;5030436;28;20518;-62
2022/09/21 00:33:51;;;;;;;8.73;2.60;;;11.90;99.90;;;;;;5029375;28;20045;-62
2022/09/21 00:36:19;;;;;;;5.47;2.28;;;12.20;99.90;;;;;;5030872;28;20030;-62
2022/09/21 00:38:49;;;;;;;5.20;2.20;;;12.40;99.90;;;;;;5030909;28;20878;-62
2022/09/21 00:41:15;;;;;;;9.07;2.40;;;12.10;99.90;;;;;;5030362;28;20034;-62
2022/09/21 00:44:08;;;;;;;9.18;2.53;;;12.00;99.90;;;;;;5031145;28;20124;-62
2022/09/21 00:46:37;;;;;;;14.27;2.60;;;11.80;99.90;;;;;;5030334;28;20068;-62
2022/09/21 00:49:03;;;;;;;6.03;2.50;;;12.30;99.90;;;;;;5014934;28;20117;-62
2022/09/21 00:51:29;;;;;;;4.28;2.20;;;11.90;99.90;;;;;;5029580;28;20080;-62
2022/09/21 00:54:02;;;;;;;5.40;2.58;;;12.10;99.90;;;;;;5012430;28;20462;-62
2022/09/21 00:56:28;;;;;;;8.13;3.20;;;12.30;99.90;;;;;;5032575;28;20037;-62
2022/09/21 00:58:55;;;;;;;9.23;3.10;;;12.50;99.90;;;;;;5034589;28;20041;-62
2022/09/21 01:01:21;;;;;;;7.15;2.45;;;12.50;99.90;;;;;;5033679;28;20033;-62
2022/09/21 01:03:49;;;;;;;7.65;2.40;;;11.90;99.90;;;;;;5034073;28;20041;-62
2022/09/21 01:06:18;;;;;;;12.13;4.30;;;12.20;99.90;;;;;;5034126;28;20045;-62
2022/09/21 01:08:46;;;;;;;7.68;2.90;;;12.20;99.90;;;;;;5033984;28;20406;-62
2022/09/21 01:11:33;;;;;;;7.53;2.53;;;11.90;99.90;;;;;;5016155;28;20057;-62
2022/09/21 01:13:58;;;;;;;5.18;2.50;;;12.50;99.90;;;;;;5033905;28;20054;-62
2022/09/21 01:16:48;;;;;;;5.80;2.10;;;12.30;99.90;;;;;;5033933;28;20522;-62
2022/09/21 01:19:45;;;;;;;5.63;2.35;;;12.50;99.90;;;;;;5033954;28;20095;-62
2022/09/21 01:22:11;;;;;;;3.60;2.17;;;12.60;99.90;;;;;;5033928;28;20107;-62
2022/09/21 01:24:55;;;;;;;5.97;2.30;;;12.50;99.90;;;;;;5033684;28;20450;-62
2022/09/21 01:27:45;;;;;;;2.90;1.48;;;11.80;99.90;;;;;;5033608;28;20037;-62
2022/09/21 01:30:15;;;;;;;9.15;2.10;;;12.00;99.90;;;;;;5033725;28;20048;-62
2022/09/21 01:32:56;;;;;;;3.35;1.83;;;11.70;99.90;;;;;;5032447;28;20124;-62
2022/09/21 01:35:28;;;;;;;8.00;2.80;;;11.90;99.90;;;;;;5033096;28;20049;-62
2022/09/21 01:38:02;;;;;;;10.55;2.90;;;12.20;99.90;;;;;;5033662;28;20044;-62
2022/09/21 01:40:40;;;;;;;4.95;2.65;;;12.30;99.90;;;;;;5033438;28;20511;-62
2022/09/21 01:43:09;;;;;;;12.18;2.95;;;11.80;99.90;;;;;;5033600;28;20547;-62
2022/09/21 01:45:39;;;;;;;7.25;2.80;;;11.80;99.90;;;;;;5016745;28;20033;-62
2022/09/21 01:48:06;;;;;;;6.07;2.78;;;11.70;99.90;;;;;;5021718;28;20503;-62
2022/09/21 01:50:41;;;;;;;15.10;3.95;;;12.30;99.90;;;;;;5016094;28;20053;-62
2022/09/21 01:53:17;;;;;;;12.70;3.05;;;12.40;99.90;;;;;;5033487;28;20530;-62
2022/09/21 01:55:49;;;;;;;8.90;3.30;;;12.10;99.90;;;;;;5017649;28;20499;-62
2022/09/21 01:58:16;;;;;;;6.47;3.10;;;11.90;99.90;;;;;;5032711;28;20098;-62
2022/09/21 02:00:45;;;;;;;8.68;2.90;;;12.30;99.90;;;;;;5027840;28;20406;-62
2022/09/21 02:03:57;;;;;;;8.93;2.60;;;11.90;99.90;;;;;;5032735;28;20041;-62
2022/09/21 02:06:26;;;;;;;5.68;1.85;;;12.30;99.90;;;;;;5022595;28;20645;-62
2022/09/21 02:08:52;;;;;;;7.65;1.90;;;12.20;99.90;;;;;;5032645;28;20499;-62
2022/09/21 02:11:18;;;;;;;11.13;2.08;;;12.00;99.90;;;;;;5032626;28;20148;-62
2022/09/21 02:13:47;;;;;;;138.13;4.03;;;11.40;99.90;;;;;;5014955;28;20091;-62
2022/09/21 02:16:23;;;;;;;19.17;2.20;;;11.70;99.90;;;;;;5032405;28;20037;-62
2022/09/21 02:19:15;;;;;;;201.13;5.43;;;11.90;99.90;;;;;;5032820;28;20045;-62
2022/09/21 02:22:12;;;;;;;15.40;2.60;;;11.80;99.90;;;;;;5032599;28;20124;-62
2022/09/21 02:24:41;;;;;;;6.38;2.50;;;11.80;99.90;;;;;;5032822;28;20538;-62
2022/09/21 02:27:24;;;;;;;7.55;2.72;;;11.20;99.90;;;;;;5032678;28;20050;-62
2022/09/21 02:30:17;;;;;;;7.72;3.10;;;11.10;99.90;;;;;;5032178;28;20052;-62
2022/09/21 02:32:58;;;;;;;5.55;2.60;;;11.30;99.90;;;;;;5012882;28;20042;-62
2022/09/21 02:35:36;;;;;;;11.65;2.70;;;11.50;99.90;;;;;;5029093;28;20045;-62
2022/09/21 02:38:25;;;;;;;5.28;2.50;;;10.90;99.90;;;;;;5037261;28;20606;-62
2022/09/21 02:41:11;;;;;;;5.60;2.30;;;11.60;99.90;;;;;;5046616;28;20491;-62
2022/09/21 02:43:48;;;;;;;2.95;2.50;;;10.80;99.90;;;;;;5032512;28;20643;-62
2022/09/21 02:46:22;;;;;;;6.03;2.10;;;11.50;99.90;;;;;;5032271;28;20042;-62
2022/09/21 02:48:52;;;;;;;6.63;2.42;;;11.20;99.90;;;;;;5027736;28;20511;-62
2022/09/21 02:51:29;;;;;;;9.82;2.80;;;10.90;99.90;;;;;;5032141;28;20540;-62
2022/09/21 02:53:57;;;;;;;9.57;2.55;;;11.10;99.90;;;;;;5032025;28;20046;-62
2022/09/21 02:56:24;;;;;;;8.63;2.63;;;11.50;99.90;;;;;;5031828;28;20410;-62
2022/09/21 02:58:54;;;;;;;7.93;2.50;;;11.50;99.90;;;;;;5031658;28;20376;-62
2022/09/21 03:01:21;;;;;;;13.43;2.60;;;11.20;99.90;;;;;;5011776;28;20120;-62
2022/09/21 03:03:47;;;;;;;8.38;2.60;;;11.50;99.90;;;;;;5030193;28;20497;-62
2022/09/21 03:06:13;;;;;;;9.95;3.10;;;10.90;99.90;;;;;;5030928;28;20045;-62
2022/09/21 03:08:39;;;;;;;5.75;2.58;;;11.10;99.90;;;;;;5031942;28;20044;-62
2022/09/21 03:11:05;;;;;;;10.73;2.75;;;11.10;99.90;;;;;;5031224;28;20053;-62
2022/09/21 03:13:31;;;;;;;7.80;2.60;;;11.50;99.90;;;;;;5031894;28;20465;-62
2022/09/21 03:16:15;;;;;;;7.40;2.63;;;11.40;99.90;;;;;;5031399;28;20037;-62
2022/09/21 03:18:43;;;;;;;12.02;2.92;;;11.00;99.90;;;;;;5031355;28;20071;-62
2022/09/21 03:21:09;;;;;;;7.07;2.40;;;11.50;99.90;;;;;;5031658;28;20124;-62
2022/09/21 03:23:35;;;;;;;4.50;2.42;;;10.90;99.90;;;;;;5031943;28;20515;-62
2022/09/21 03:26:01;;;;;;;8.20;2.47;;;11.00;99.90;;;;;;5031544;28;20155;-62
2022/09/21 03:28:27;;;;;;;7.63;2.75;;;11.20;99.90;;;;;;5031613;28;20172;-62
2022/09/21 03:30:52;;;;;;;5.65;2.30;;;10.80;99.90;;;;;;5031123;28;20108;-62
2022/09/21 03:33:20;;;;;;;13.63;2.67;;;11.20;99.90;;;;;;5031173;28;20039;-62
2022/09/21 03:35:49;;;;;;;10.18;2.50;;;10.90;99.90;;;;;;5031433;28;20045;-62
2022/09/21 03:38:18;;;;;;;6.13;2.38;;;11.70;99.90;;;;;;5031309;28;20463;-62
2022/09/21 03:40:47;;;;;;;11.07;2.88;;;11.10;99.90;;;;;;5030932;28;20036;-62
2022/09/21 03:43:14;;;;;;;5.15;2.63;;;11.30;99.90;;;;;;5031132;28;20041;-62
2022/09/21 03:45:42;;;;;;;11.73;2.78;;;11.10;99.90;;;;;;5031504;28;20041;-62
2022/09/21 03:48:09;;;;;;;7.68;2.45;;;11.40;99.90;;;;;;5026843;28;20052;-62
2022/09/21 03:50:36;;;;;;;3.53;2.58;;;11.20;99.90;;;;;;5031009;28;20059;-62
2022/09/21 03:53:01;;;;;;;7.63;2.83;;;11.60;99.90;;;;;;5031406;28;20037;-62
2022/09/21 03:55:28;;;;;;;5.07;2.20;;;11.60;99.90;;;;;;5030458;28;20047;-62
2022/09/21 03:57:54;;;;;;;3.33;2.17;;;11.70;99.90;;;;;;5031245;28;20041;-62
2022/09/21 04:00:20;;;;;;;9.20;2.58;;;11.80;99.90;;;;;;5030972;28;20040;-62
2022/09/21 04:02:46;;;;;;;4.38;1.92;;;11.50;99.90;;;;;;5030985;28;20103;-62
2022/09/21 04:05:15;;;;;;;3.15;2.22;;;11.10;99.90;;;;;;5031339;28;20075;-62
2022/09/21 04:07:44;;;;;;;3.72;1.83;;;11.70;99.90;;;;;;5031243;28;20572;-62
2022/09/21 04:10:11;;;;;;;4.60;1.88;;;11.80;99.90;;;;;;5013389;28;20129;-62
2022/09/21 04:12:42;;;;;;;6.05;2.42;;;11.80;99.90;;;;;;5030920;28;20053;-62
2022/09/21 04:15:12;;;;;;;5.45;2.40;;;11.00;99.90;;;;;;5030895;28;20041;-62
2022/09/21 04:17:38;;;;;;;7.22;1.98;;;11.40;99.90;;;;;;5028306;28;20503;-62
2022/09/21 04:20:05;;;;;;;4.15;2.10;;;11.10;99.90;;;;;;5031127;28;20040;-62
2022/09/21 04:22:30;;;;;;;7.10;2.50;;;11.70;99.90;;;;;;5030836;28;20140;-62
2022/09/21 04:24:56;;;;;;;6.40;2.08;;;11.00;99.90;;;;;;5031179;28;20420;-62
2022/09/21 04:27:23;;;;;;;4.18;2.35;;;10.70;99.90;;;;;;5030722;28;20041;-62
2022/09/21 04:29:48;;;;;;;6.43;2.40;;;10.80;99.90;;;;;;5030798;28;20495;-62
2022/09/21 04:32:14;;;;;;;9.07;2.33;;;10.60;99.90;;;;;;5034224;28;20043;-62
2022/09/21 04:34:40;;;;;;;7.65;2.60;;;10.70;99.90;;;;;;5034792;28;20042;-62
2022/09/21 04:37:08;;;;;;;5.95;2.53;;;11.30;99.90;;;;;;5034560;28;20030;-62
2022/09/21 04:39:34;;;;;;;2.88;2.38;;;11.30;99.90;;;;;;5034576;28;20029;-62
2022/09/21 04:42:00;;;;;;;5.22;2.28;;;10.60;99.90;;;;;;5034444;28;20526;-62
2022/09/21 04:44:26;;;;;;;6.50;2.55;;;11.00;99.90;;;;;;5034826;28;20128;-62
2022/09/21 04:46:51;;;;;;;5.63;2.53;;;11.40;99.90;;;;;;5032388;28;20048;-62
2022/09/21 04:49:17;;;;;;;8.70;2.53;;;10.90;99.90;;;;;;5049233;28;20044;-62
2022/09/21 04:51:42;;;;;;;7.05;2.13;;;11.30;99.90;;;;;;5041611;28;20059;-62
2022/09/21 04:54:08;;;;;;;4.05;1.98;;;11.30;99.90;;;;;;5034473;28;20042;-62
2022/09/21 04:56:34;;;;;;;4.25;2.17;;;10.70;99.90;;;;;;5033805;28;20034;-62
2022/09/21 04:58:59;;;;;;;3.33;2.00;;;11.10;99.90;;;;;;5034335;28;20041;-62
2022/09/21 05:01:25;;;;;;;3.55;1.63;;;11.20;99.90;;;;;;5016196;28;20037;-62
2022/09/21 05:03:50;;;;;;;1.98;1.20;;;10.80;99.90;;;;;;5034452;28;20410;-62
2022/09/21 05:06:16;;;;;;;1.88;1.23;;;11.10;99.90;;;;;;5033220;28;20388;-62
2022/09/21 05:11:26;;;;;;;8.48;2.15;;;10.40;99.90;;;;;;5033708;28;20052;-62
2022/09/21 05:13:51;;;;;;;13.68;2.00;;;11.10;99.90;;;;;;5034108;28;20116;-62
2022/09/21 05:16:18;;;;;;;5.55;1.55;;;10.90;99.90;;;;;;5033689;28;20056;-62
2022/09/21 05:18:45;;;;;;;17.77;2.60;;;10.70;99.90;;;;;;5034195;28;20041;-62
2022/09/21 05:21:12;;;;;;;7.38;2.60;;;10.60;99.90;;;;;;5033750;28;20055;-62
2022/09/21 05:23:38;;;;;;;8.82;2.50;;;10.50;99.90;;;;;;5033994;28;20033;-62
2022/09/21 05:26:04;;;;;;;9.73;2.83;;;10.70;99.90;;;;;;5015834;28;20049;-62
2022/09/21 05:28:30;;;;;;;6.32;2.78;;;11.10;99.90;;;;;;5034197;28;20135;-62
2022/09/21 05:31:33;;;;;;;10.77;3.28;;;11.10;99.90;;;;;;5033480;28;20046;-62
2022/09/21 05:34:17;;;;;;;13.40;3.38;;;10.40;99.90;;;;;;5033681;28;20103;-62
2022/09/21 05:36:51;;;;;;;14.30;3.05;;;11.10;99.90;;;;;;5033262;28;20052;-62
2022/09/21 05:39:17;;;;;;;7.30;3.13;;;10.50;99.90;;;;;;5033587;28;20565;-62
2022/09/21 05:41:42;;;;;;;8.63;3.20;;;11.00;99.90;;;;;;5033348;28;20033;-62
2022/09/21 05:44:13;;;;;;;7.18;3.90;;;10.60;99.90;;;;;;5015834;28;20045;-62
2022/09/21 05:46:41;;;;;;;12.15;3.50;;;10.60;99.90;;;;;;5033338;28;20045;-62
2022/09/21 05:49:40;;;;;;;7.53;3.20;;;10.70;99.90;;;;;;5013655;28;20053;-62
2022/09/21 05:52:14;;;;;;;8.00;3.03;;;11.30;99.90;;;;;;5026544;28;20045;-62
2022/09/21 05:55:01;;;;;;;6.60;3.03;;;10.70;99.90;;;;;;5015258;28;20474;-62
2022/09/21 05:58:03;;;;;;;8.45;2.75;;;10.80;99.90;;;;;;5033245;28;20037;-62
2022/09/21 06:00:51;;;;;;;18.83;3.70;;;11.10;99.90;;;;;;5032704;28;20068;-62
2022/09/21 06:03:28;;;;;;;8.82;3.28;;;11.40;99.90;;;;;;5033129;28;20469;-62
2022/09/21 06:05:55;;;;;;;20.42;3.83;;;11.00;99.90;;;;;;5033532;28;20120;-62
2022/09/21 06:08:21;;;;;;;9.88;2.92;;;11.00;99.90;;;;;;5015419;28;20454;-62
2022/09/21 06:10:47;;;;;;;18.70;3.30;;;10.90;99.90;;;;;;5032545;28;20064;-62
2022/09/21 06:13:13;;;;;;;11.43;3.38;;;11.30;99.90;;;;;;5033202;28;20049;-63
2022/09/21 06:15:39;;;;;;;12.38;3.35;;;11.60;99.90;;;;;;5032421;28;20041;-63
2022/09/21 06:18:06;;;;;;;8.13;3.90;;;11.80;99.90;;;;;;5029156;28;20042;-62
2022/09/21 06:20:32;;;;;;;10.25;3.33;;;11.20;99.90;;;;;;5012645;28;20478;-63
2022/09/21 06:23:08;;;;;;;8.40;3.65;;;11.60;99.90;;;;;;5031198;28;20041;-62
2022/09/21 06:25:35;;;;;;;6.97;3.38;;;11.50;99.90;;;;;;5030594;28;20076;-62
2022/09/21 06:28:11;;;;;;;8.80;3.22;;;12.20;99.90;;;;;;5031609;28;20045;-62
2022/09/21 06:30:39;;;;;;;7.47;2.90;;;11.50;99.90;;;;;;5031174;28;20047;-62
2022/09/21 06:33:05;;;;;;;6.38;3.38;;;12.10;99.90;;;;;;5032509;28;20064;-62
2022/09/21 06:35:33;;;;;;;8.65;3.42;;;11.80;99.90;;;;;;5032738;28;20038;-62
2022/09/21 06:38:00;;;;;;;11.27;3.60;;;12.40;99.90;;;;;;5032167;28;20116;-62
2022/09/21 06:40:30;;;;;;;10.80;3.33;;;11.80;99.90;;;;;;5031958;28;20499;-62
2022/09/21 06:42:57;;;;;;;13.23;3.92;;;11.90;99.90;;;;;;5030501;28;20048;-63
2022/09/21 06:45:23;;;;;;;9.02;3.30;;;12.70;99.90;;;;;;5013250;28;20103;-62
2022/09/21 06:47:48;;;;;;;14.60;3.42;;;12.30;99.90;;;;;;5022954;28;20496;-63
2022/09/21 06:50:14;;;;;;;9.88;3.38;;;13.00;99.90;;;;;;5012626;28;20462;-63
2022/09/21 06:52:40;;;;;;;9.52;3.75;;;12.40;99.90;;;;;;5022385;28;20037;-62
2022/09/21 06:55:08;;;;;;;4.15;3.22;;;12.40;99.90;;;;;;5030581;28;20121;-63
2022/09/21 06:57:33;;;;;;;13.05;2.95;;;13.10;99.90;;;;;;5031722;28;20109;-63
2022/09/21 06:59:59;;;;;;;13.13;3.20;;;13.40;99.90;;;;;;5031928;28;20131;-63
2022/09/21 07:02:24;;;;;;;11.82;3.33;;;13.60;99.90;;;;;;5032075;28;20065;-63
2022/09/21 07:04:50;;;;;;;9.05;3.33;;;13.20;99.90;;;;;;5032210;28;20072;-63
2022/09/21 07:07:15;;;;;;;10.27;2.85;;;13.00;99.90;;;;;;5031412;28;20030;-63
2022/09/21 07:09:41;;;;;;;13.55;3.20;;;13.90;99.90;;;;;;5031122;28;20384;-63
2022/09/21 07:12:07;;;;;;;9.77;3.70;;;13.10;99.90;;;;;;5030055;28;20459;-63
2022/09/21 07:14:33;;;;;;;8.88;3.17;;;13.80;99.90;;;;;;5031561;28;20041;-63
2022/09/21 07:16:58;;;;;;;6.78;2.97;;;13.40;99.90;;;;;;5031931;28;20033;-63
2022/09/21 07:19:24;;;;;;;5.05;2.83;;;13.50;99.90;;;;;;5031720;28;20029;-63
2022/09/21 07:21:53;;;;;;;9.93;3.00;;;13.80;99.90;;;;;;5031335;28;20487;-63
2022/09/21 07:24:18;;;;;;;13.95;3.47;;;13.90;99.90;;;;;;5031676;28;20041;-63
2022/09/21 07:26:44;;;;;;;10.48;2.47;;;14.80;99.90;;;;;;5030472;28;20116;-63
2022/09/21 07:29:09;;;;;;;10.65;2.72;;;15.00;99.90;;;;;;5031225;28;20045;-63
2022/09/21 07:31:35;;;;;;;9.20;2.35;;;14.60;99.90;;;;;;5031396;28;20124;-63
2022/09/21 07:34:01;;;;;;;11.40;2.63;;;15.40;99.90;;;;;;5031789;28;20038;-63
2022/09/21 07:36:26;;;;;;;7.18;2.50;;;15.50;99.90;;;;;;5031745;28;20091;-63
2022/09/21 07:38:52;;;;;;;11.27;2.75;;;15.50;99.90;;;;;;5031407;28;20112;-63
2022/09/21 07:41:19;;;;;;;11.10;2.40;;;14.80;99.90;;;;;;5030567;28;20033;-63
2022/09/21 07:43:44;;;;;;;9.75;2.05;;;15.60;99.90;;;;;;5031398;28;20033;-63
2022/09/21 07:46:13;;;;;;;10.25;1.85;;;15.30;99.90;;;;;;5031452;28;20438;-63
2022/09/21 07:48:39;;;;;;;7.43;1.95;;;16.10;99.90;;;;;;5015300;28;20048;-63
2022/09/21 07:51:15;;;;;;;8.30;2.05;;;15.40;99.90;;;;;;5012816;28;20124;-63
2022/09/21 07:53:43;;;;;;;10.60;2.00;;;16.00;99.90;;;;;;5031436;28;20037;-63
2022/09/21 07:56:14;;;;;;;13.77;1.98;;;16.60;99.90;;;;;;5030766;28;20045;-64
2022/09/21 08:01:26;;;;;;;6.68;1.45;;;17.60;99.90;;;;;;5011296;28;20555;-64
2022/09/21 08:03:53;;;;;;;8.15;1.95;;;18.30;99.90;;;;;;5011471;28;20096;-64
2022/09/21 08:06:19;;;;;;;8.50;1.80;;;18.90;99.90;;;;;;5011123;28;20042;-64
2022/09/21 08:08:46;;;;;;;8.25;1.92;;;18.70;99.90;;;;;;4993896;28;20113;-64
2022/09/21 08:11:16;;;;;;;5.40;1.30;;;19.60;99.90;;;;;;5030635;28;20099;-65
2022/09/21 08:13:42;;;;;;;4.57;1.35;;;20.00;99.90;;;;;;5031158;28;20510;-64
2022/09/21 08:16:08;;;;;;;7.05;1.90;;;20.10;99.90;;;;;;5030945;28;20046;-65
2022/09/21 08:18:38;;;;;;;6.90;2.10;;;20.60;99.90;;;;;;5031109;28;20033;-64
2022/09/21 08:21:05;;;;;;;5.05;1.55;;;20.50;99.90;;;;;;5030867;28;20502;-64
2022/09/21 08:23:30;;;;;;;5.43;1.63;;;20.90;99.90;;;;;;5030953;28;20034;-64
2022/09/21 08:26:05;;;;;;;9.10;1.73;;;20.90;99.90;;;;;;5030443;28;20048;-65
2022/09/21 08:28:32;;;;;;;4.05;1.25;;;21.40;99.90;;;;;;5030942;28;20041;-64
2022/09/21 08:30:59;;;;;;;9.60;1.70;;;21.30;99.90;;;;;;5030474;28;20389;-65
2022/09/21 08:33:24;;;;;;;7.85;1.17;;;21.40;99.90;;;;;;5012562;28;20048;-64
2022/09/21 08:35:54;;;;;;;5.35;1.20;;;21.60;99.90;;;;;;5013088;28;20037;-65
2022/09/21 08:38:20;;;;;;;11.35;1.48;;;22.10;99.90;;;;;;5013289;28;20048;-65
2022/09/21 08:40:46;;;;;;;9.55;1.50;;;22.30;99.90;;;;;;5030631;28;20041;-65
2022/09/21 08:43:15;;;;;;;8.05;1.80;;;22.00;99.90;;;;;;5030900;28;20038;-61
2022/09/21 08:45:43;;;;;;;10.25;1.38;;;22.00;99.90;;;;;;5022773;28;20104;-61
2022/09/21 08:48:22;;;;;;;7.45;1.30;;;21.70;99.90;;;;;;5027150;28;20049;-62
2022/09/21 08:51:11;;;;;;;10.52;1.42;;;21.30;99.90;;;;;;5030577;28;20111;-62
2022/09/21 08:53:46;;;;;;;6.85;1.20;;;21.10;99.90;;;;;;5030921;28;20398;-61
2022/09/21 08:56:13;;;;;;;6.30;1.42;;;20.70;99.90;;;;;;5030364;28;20038;-61
2022/09/21 08:58:40;;;;;;;9.15;1.45;;;20.80;99.90;;;;;;5037785;28;20083;-61
2022/09/21 09:01:36;;;;;;;3.63;1.02;;;20.10;99.90;;;;;;5035427;28;20045;-61
2022/09/21 09:04:36;;;;;;;8.57;1.50;;;20.10;99.90;;;;;;5030897;28;20044;-61
2022/09/21 09:07:05;;;;;;;3.70;1.20;;;20.20;99.90;;;;;;5007325;28;20643;-61
2022/09/21 09:09:36;;;;;;;7.35;1.33;;;19.90;99.90;;;;;;5030032;28;20878;-61
2022/09/21 09:12:01;;;;;;;7.32;1.23;;;19.60;99.90;;;;;;5025027;28;20060;-61
2022/09/21 09:14:39;;;;;;;7.93;1.52;;;19.60;99.90;;;;;;5050370;28;20053;-61
2022/09/21 09:17:23;;;;;;;5.43;1.38;;;20.00;99.90;;;;;;5038400;28;20112;-61
2022/09/21 09:20:04;;;;;;;6.40;1.13;;;20.20;99.90;;;;;;5017355;28;20060;-61
2022/09/21 09:22:37;;;;;;;8.63;1.50;;;20.10;99.90;;;;;;5034210;28;20033;-61
2022/09/21 09:25:11;;;;;;;7.35;1.38;;;19.90;21.80;;;;;;5033136;28;20045;-61
2022/09/21 09:27:40;;;;;;;6.75;1.60;;;19.60;1.00;;;;;;5032210;28;20053;-61
2022/09/21 09:30:20;;;;;;;8.82;1.50;;;19.00;99.90;;;;;;5030290;28;20116;-61
2022/09/21 09:32:55;;;;;;;8.27;1.48;;;18.60;99.90;;;;;;5031994;28;20087;-61
2022/09/21 09:35:32;;;;;;;7.78;1.42;;;18.30;99.90;;;;;;5014337;28;20045;-61
2022/09/21 09:38:13;;;;;;;5.05;1.30;;;18.00;99.90;;;;;;5008477;28;20038;-61
2022/09/21 09:41:06;;;;;;;10.02;1.60;;;17.80;99.90;;;;;;5021409;28;20041;-61
2022/09/21 09:43:53;;;;;;;7.05;1.20;;;17.80;5.00;;;;;;5031967;28;20071;-61
2022/09/21 09:46:30;;;;;;;5.97;1.40;;;17.60;99.90;;;;;;5031648;28;20088;-61
2022/09/21 09:48:55;;;;;;;5.22;1.70;;;17.90;99.90;;;;;;5032889;28;20087;-61
2022/09/21 09:51:22;;;;;;;4.15;1.25;;;18.00;99.90;;;;;;5032840;28;20037;-61
2022/09/21 09:53:48;;;;;;;5.78;1.30;;;18.20;99.90;;;;;;5033754;28;20462;-61
2022/09/21 09:56:17;;;;;;;3.78;1.33;;;18.80;1.00;;;;;;5033093;28;20399;-61
2022/09/21 09:58:52;;;;;;;6.70;1.45;;;18.70;1.00;;;;;;5032524;28;20038;-61
2022/09/21 10:01:41;;;;;;;4.22;1.75;;;18.70;1.00;;;;;;5030000;28;20103;-61
2022/09/21 10:04:10;;;;;;;4.40;1.20;;;19.00;99.90;;;;;;5033540;28;20033;-61
2022/09/21 10:06:36;;;;;;;8.82;1.50;;;19.10;43.30;;;;;;5033171;28;20069;-61
2022/09/21 10:09:30;;;;;;;11.38;2.05;;;19.20;1.00;;;;;;5033011;28;20113;-61
2022/09/21 10:12:14;;;;;;;4.30;1.38;;;19.00;1.00;;;;;;5015281;28;20139;-61
2022/09/21 10:14:48;;;;;;;5.18;1.50;;;19.00;99.90;;;;;;5033057;28;20122;-61
2022/09/21 10:17:17;;;;;;;3.22;1.23;;;19.10;99.90;;;;;;5033170;28;20127;-61
2022/09/21 10:19:43;;;;;;;4.15;1.40;;;18.90;99.90;;;;;;5032028;28;20041;-61
2022/09/21 10:22:18;;;;;;;4.18;1.35;;;18.90;94.80;;;;;;5032906;28;20041;-61
2022/09/21 10:24:52;;;;;;;6.45;1.45;;;19.00;99.90;;;;;;5031447;28;20072;-61
2022/09/21 10:27:33;;;;;;;3.42;1.30;;;19.00;1.00;;;;;;5032791;28;20087;-61
2022/09/21 10:29:59;;;;;;;5.78;1.42;;;19.10;1.00;;;;;;5031542;28;20116;-61
2022/09/21 10:32:27;;;;;;;7.38;1.63;;;19.10;1.00;;;;;;5032717;28;20475;-61
2022/09/21 10:35:07;;;;;;;5.97;1.38;;;19.50;1.00;;;;;;5032022;28;20125;-61
2022/09/21 10:37:41;;;;;;;5.57;1.23;;;19.10;99.90;;;;;;5032821;28;20034;-61
2022/09/21 10:40:18;;;;;;;7.20;1.48;;;19.00;99.90;;;;;;5031807;28;20045;-61
2022/09/21 10:42:46;;;;;;;9.13;1.48;;;18.90;99.90;;;;;;5032603;28;20047;-61
2022/09/21 10:45:24;;;;;;;7.85;1.50;;;18.80;99.90;;;;;;5032374;28;20052;-61
2022/09/21 10:47:53;;;;;;;6.25;1.85;;;19.00;99.90;;;;;;5022869;28;20060;-61
2022/09/21 10:50:43;;;;;;;3.78;1.15;;;19.20;99.90;;;;;;5030392;28;20053;-61
2022/09/21 10:53:09;;;;;;;2.80;1.10;;;19.20;99.90;;;;;;5014250;28;20191;-62
2022/09/21 10:55:40;;;;;;;5.32;1.42;;;19.60;99.90;;;;;;5031642;28;20128;-61
2022/09/21 10:58:11;;;;;;;7.15;1.67;;;18.90;28.70;;;;;;5031983;28;20113;-61
2022/09/21 11:00:46;;;;;;;4.60;1.20;;;18.80;1.00;;;;;;5031879;28;20041;-61
2022/09/21 11:03:40;;;;;;;5.95;1.85;;;18.70;1.00;;;;;;5014434;28;20041;-61
2022/09/21 11:06:37;;;;;;;7.88;1.23;;;18.80;1.00;;;;;;5024515;28;20563;-61
2022/09/21 11:09:25;;;;;;;4.88;1.17;;;19.00;1.00;;;;;;5027145;28;20124;-61
2022/09/21 11:12:24;;;;;;;4.72;1.75;;;19.10;1.00;;;;;;5031673;28;20049;-61
2022/09/21 11:14:55;;;;;;;5.97;1.13;;;19.10;1.00;;;;;;5006933;28;20136;-61
2022/09/21 11:17:34;;;;;;;5.13;1.30;;;19.10;1.00;;;;;;5031984;28;20064;-61
2022/09/21 11:20:22;;;;;;;7.30;1.50;;;19.00;99.90;;;;;;5031898;28;20517;-61
2022/09/21 11:22:52;;;;;;;5.07;1.50;;;18.80;99.90;;;;;;5031405;28;20365;-61
2022/09/21 11:25:38;;;;;;;7.47;1.55;;;18.70;99.90;;;;;;5030942;28;20057;-60
2022/09/21 11:28:13;;;;;;;6.05;1.35;;;18.70;99.90;;;;;;5030356;28;20457;-61
2022/09/21 11:30:45;;;;;;;;;;;18.90;99.90;;;;;;5031782;28;20541;-61
2022/09/21 11:33:30;;;;;;;5.97;1.30;;;18.90;99.90;;;;;;5031725;28;19917;-61
2022/09/21 11:36:06;;;;;;;9.13;1.38;;;19.10;99.90;;;;;;5028942;28;20050;-60
2022/09/21 11:39:06;;;;;;;6.30;1.45;;;19.10;99.90;;;;;;5013263;28;20037;-61
2022/09/21 11:41:51;;;;;;;8.77;1.40;;;18.70;99.80;;;;;;5031082;28;20114;-60
2022/09/21 11:44:39;;;;;;;5.45;1.38;;;18.80;30.50;;;;;;5031272;28;20041;-60
2022/09/21 11:47:25;;;;;;;5.30;1.40;;;19.20;99.90;;;;;;5024701;28;20037;-61
2022/09/21 11:49:57;;;;;;;4.82;1.17;;;19.10;1.00;;;;;;5030138;28;20073;-60
2022/09/21 11:52:41;;;;;;;6.85;1.40;;;19.10;1.00;;;;;;5029547;28;20037;-61
2022/09/21 11:55:16;;;;;;;3.47;1.10;;;19.10;1.00;;;;;;5029119;28;20137;-61
2022/09/21 11:58:00;;;;;;;7.07;1.42;;;18.90;1.00;;;;;;5029573;28;20103;-61
2022/09/21 12:00:32;;;;;;;5.70;1.35;;;18.90;99.90;;;;;;5029292;28;20038;-61
2022/09/21 12:03:27;;;;;;;6.82;1.55;;;18.80;99.90;;;;;;5029443;28;20029;-61
2022/09/21 12:06:18;;;;;;;10.70;1.45;;;18.90;99.90;;;;;;5013747;28;20051;-61
2022/09/21 12:09:13;;;;;;;7.60;1.45;;;19.10;1.00;;;;;;5030417;28;20079;-61
2022/09/21 12:11:56;;;;;;;18.52;2.17;;;19.30;1.00;;;;;;5030956;28;20515;-61
2022/09/21 12:14:41;;;;;;;5.57;1.10;;;19.40;1.00;;;;;;5030928;28;20041;-61
2022/09/21 12:17:35;;;;;;;7.60;1.25;;;19.40;1.00;;;;;;5031051;28;20048;-61
2022/09/21 12:20:24;;;;;;;12.90;2.20;;;19.40;99.90;;;;;;5013894;28;20046;-61
2022/09/21 12:22:56;;;;;;;6.72;2.20;;;19.50;99.90;;;;;;5031148;28;20037;-60
2022/09/21 12:25:34;;;;;;;7.20;1.30;;;19.40;99.90;;;;;;5030915;28;20049;-61
2022/09/21 12:28:11;;;;;;;5.72;1.65;;;19.30;99.90;;;;;;5030831;28;20369;-61
2022/09/21 12:30:41;;;;;;;11.75;1.55;;;19.40;99.90;;;;;;5030769;28;20103;-61
2022/09/21 12:33:25;;;;;;;7.57;1.50;;;19.40;99.90;;;;;;5031184;28;20050;-61
2022/09/21 12:36:02;;;;;;;3.75;1.10;;;19.40;99.90;;;;;;5030922;28;20092;-61
2022/09/21 12:38:30;;;;;;;5.47;1.30;;;19.30;99.90;;;;;;5030235;28;20041;-61
2022/09/21 12:41:21;;;;;;;11.30;1.38;;;19.00;99.90;;;;;;5030792;28;20080;-61
2022/09/21 12:43:54;;;;;;;4.10;1.33;;;18.80;99.90;;;;;;5030876;28;20507;-61
2022/09/21 12:46:29;;;;;;;5.10;0.98;;;18.80;99.90;;;;;;5027210;28;20038;-61
2022/09/21 12:48:57;;;;;;;6.83;1.37;;;19.00;99.90;;;;;;5011015;28;20042;-61
2022/09/21 12:51:33;;;;;;;8.20;1.67;;;19.10;99.90;;;;;;5011306;28;20100;-61
2022/09/21 12:54:00;;;;;;;;;;;19.10;99.90;;;;;;5015214;28;20042;-61
2022/09/21 12:56:39;;;;;;;5.13;1.48;;;19.00;99.90;;;;;;5014512;28;20011;-60
2022/09/21 12:59:10;;;;;;;6.30;1.50;;;18.80;99.90;;;;;;5019231;28;20190;-60
2022/09/21 13:01:59;;;;;;;6.68;1.50;;;18.40;99.90;;;;;;5034192;28;20048;-65
2022/09/21 13:04:43;;;;;;;8.88;1.85;;;18.20;99.90;;;;;;5034525;28;20047;-65
2022/09/21 13:07:45;;;;;;;11.30;1.48;;;18.10;99.90;;;;;;5034271;28;20049;-65
2022/09/21 13:10:42;;;;;;;5.72;1.30;;;18.30;99.90;;;;;;5032832;28;20037;-66
2022/09/21 13:13:28;;;;;;;7.40;1.88;;;18.30;1.00;;;;;;4986505;28;20440;-65
2022/09/21 13:15:55;;;;;;;7.13;1.65;;;18.40;1.00;;;;;;5033903;28;20099;-65
2022/09/21 13:18:33;;;;;;;4.75;1.50;;;18.20;99.90;;;;;;5034025;28;20044;-66
2022/09/21 13:21:20;;;;;;;7.07;1.60;;;18.30;1.00;;;;;;5034125;28;20124;-66